aviador You're here:

KFRG Decoded Metar

FARMINGDALE in NY, USA
Report Time2017-11-23 19:53:00
UTC Time2017-11-23 20:21:30
Flight Rules vfr VFR
WindVRB at 03 kt
Visibility9999 m
Phenomena:N/A
Clouds:N/A
Expected CloudBase > 4,800 ft AGL from Temp-Dew spread
CeilingNone
Temp05°C (ISA -10)
Dew Point-7°C (42% RH)
AAT1.1°C
QNH1017 hPa
Density Alt-1,207 ft
Elevation69 ft
Report Wrong Elevation
Raw Report
METAR KFRG 231953Z VRB03KT 10SM CLR 05/M07 A3002 RMK AO2 SLP166 T00501072=

Extra information for KFRG:More info

Metar Taf Metar & Taf Last 4 Metars F.Rules Stats Wind Profile Meteogram Temp Stats Airport Information Weather charts Add Link Nearby VenuesMetar ALERT Operation Metar Decoded Social comments

AIRNAV info for KFRG